sensor_id;sensor_type;location;lat;lon;timestamp;P1;durP1;ratioP1;P2;durP2;ratioP2
12950;SDS011;6540;50.858;7.232;2022-12-07T00:01:28;15.77;;;10.47;;
12950;SDS011;6540;50.858;7.232;2022-12-07T00:03:56;15.47;;;9.70;;
12950;SDS011;6540;50.858;7.232;2022-12-07T00:06:28;16.03;;;10.87;;
12950;SDS011;6540;50.858;7.232;2022-12-07T00:08:54;16.97;;;10.90;;
12950;SDS011;6540;50.858;7.232;2022-12-07T00:11:20;18.07;;;10.43;;
12950;SDS011;6540;50.858;7.232;2022-12-07T00:13:47;19.53;;;11.33;;
12950;SDS011;6540;50.858;7.232;2022-12-07T00:16:17;16.57;;;10.50;;
12950;SDS011;6540;50.858;7.232;2022-12-07T00:18:44;15.60;;;10.53;;
12950;SDS011;6540;50.858;7.232;2022-12-07T00:21:14;17.13;;;11.37;;
12950;SDS011;6540;50.858;7.232;2022-12-07T00:23:42;15.23;;;11.07;;
12950;SDS011;6540;50.858;7.232;2022-12-07T00:26:12;15.17;;;11.23;;
12950;SDS011;6540;50.858;7.232;2022-12-07T00:28:41;18.30;;;11.57;;
12950;SDS011;6540;50.858;7.232;2022-12-07T00:31:11;18.33;;;12.93;;
12950;SDS011;6540;50.858;7.232;2022-12-07T00:33:37;17.47;;;11.33;;
12950;SDS011;6540;50.858;7.232;2022-12-07T00:36:04;19.43;;;12.37;;
12950;SDS011;6540;50.858;7.232;2022-12-07T00:38:33;22.57;;;12.10;;
12950;SDS011;6540;50.858;7.232;2022-12-07T00:41:02;22.23;;;12.60;;
12950;SDS011;6540;50.858;7.232;2022-12-07T00:43:29;21.83;;;13.23;;
12950;SDS011;6540;50.858;7.232;2022-12-07T00:45:55;17.13;;;12.73;;
12950;SDS011;6540;50.858;7.232;2022-12-07T00:48:21;19.53;;;11.20;;
12950;SDS011;6540;50.858;7.232;2022-12-07T00:50:47;17.60;;;11.90;;
12950;SDS011;6540;50.858;7.232;2022-12-07T00:53:13;19.77;;;13.63;;
12950;SDS011;6540;50.858;7.232;2022-12-07T00:55:38;17.60;;;12.40;;
12950;SDS011;6540;50.858;7.232;2022-12-07T00:58:04;20.13;;;13.10;;
12950;SDS011;6540;50.858;7.232;2022-12-07T01:00:30;19.03;;;13.13;;
12950;SDS011;6540;50.858;7.232;2022-12-07T01:02:55;19.97;;;14.33;;
12950;SDS011;6540;50.858;7.232;2022-12-07T01:05:21;21.53;;;14.63;;
12950;SDS011;6540;50.858;7.232;2022-12-07T01:07:46;21.87;;;13.83;;
12950;SDS011;6540;50.858;7.232;2022-12-07T01:10:12;25.27;;;14.23;;
12950;SDS011;6540;50.858;7.232;2022-12-07T01:12:38;26.80;;;14.67;;
12950;SDS011;6540;50.858;7.232;2022-12-07T01:15:04;23.40;;;14.20;;
12950;SDS011;6540;50.858;7.232;2022-12-07T01:17:30;24.43;;;15.30;;
12950;SDS011;6540;50.858;7.232;2022-12-07T01:19:55;23.27;;;15.17;;
12950;SDS011;6540;50.858;7.232;2022-12-07T01:22:20;21.73;;;14.43;;
12950;SDS011;6540;50.858;7.232;2022-12-07T01:24:46;20.43;;;13.00;;
12950;SDS011;6540;50.858;7.232;2022-12-07T01:27:12;24.37;;;14.77;;
12950;SDS011;6540;50.858;7.232;2022-12-07T01:29:38;28.27;;;16.90;;
12950;SDS011;6540;50.858;7.232;2022-12-07T01:32:03;21.73;;;13.87;;
12950;SDS011;6540;50.858;7.232;2022-12-07T01:34:29;25.20;;;15.00;;
12950;SDS011;6540;50.858;7.232;2022-12-07T01:36:54;27.90;;;15.27;;
12950;SDS011;6540;50.858;7.232;2022-12-07T01:39:19;24.17;;;14.93;;
12950;SDS011;6540;50.858;7.232;2022-12-07T01:41:45;23.20;;;14.90;;
12950;SDS011;6540;50.858;7.232;2022-12-07T01:44:18;24.47;;;14.77;;
12950;SDS011;6540;50.858;7.232;2022-12-07T01:46:45;19.63;;;14.27;;
12950;SDS011;6540;50.858;7.232;2022-12-07T01:51:58;25.63;;;15.43;;
12950;SDS011;6540;50.858;7.232;2022-12-07T01:54:32;22.50;;;14.93;;
12950;SDS011;6540;50.858;7.232;2022-12-07T01:56:58;21.27;;;14.50;;
12950;SDS011;6540;50.858;7.232;2022-12-07T01:59:24;24.97;;;16.00;;
12950;SDS011;6540;50.858;7.232;2022-12-07T02:01:51;22.27;;;15.77;;
12950;SDS011;6540;50.858;7.232;2022-12-07T02:04:18;22.70;;;15.27;;
12950;SDS011;6540;50.858;7.232;2022-12-07T02:06:44;21.93;;;15.70;;
12950;SDS011;6540;50.858;7.232;2022-12-07T02:09:11;24.67;;;16.37;;
12950;SDS011;6540;50.858;7.232;2022-12-07T02:11:37;19.20;;;14.07;;
12950;SDS011;6540;50.858;7.232;2022-12-07T02:14:03;24.93;;;16.63;;
12950;SDS011;6540;50.858;7.232;2022-12-07T02:32:08;25.07;;;17.10;;
12950;SDS011;6540;50.858;7.232;2022-12-07T02:34:47;24.03;;;16.13;;
12950;SDS011;6540;50.858;7.232;2022-12-07T02:39:52;25.43;;;16.70;;
12950;SDS011;6540;50.858;7.232;2022-12-07T02:42:28;25.90;;;16.43;;
12950;SDS011;6540;50.858;7.232;2022-12-07T02:45:00;24.00;;;15.40;;
12950;SDS011;6540;50.858;7.232;2022-12-07T02:47:26;27.67;;;16.90;;
12950;SDS011;6540;50.858;7.232;2022-12-07T02:49:54;24.33;;;16.10;;
12950;SDS011;6540;50.858;7.232;2022-12-07T02:52:20;26.17;;;16.37;;
12950;SDS011;6540;50.858;7.232;2022-12-07T02:54:45;23.20;;;16.23;;
12950;SDS011;6540;50.858;7.232;2022-12-07T03:02:28;21.97;;;17.13;;
12950;SDS011;6540;50.858;7.232;2022-12-07T03:07:42;23.50;;;15.50;;
12950;SDS011;6540;50.858;7.232;2022-12-07T03:15:57;24.40;;;16.93;;
12950;SDS011;6540;50.858;7.232;2022-12-07T03:18:25;25.60;;;15.80;;
12950;SDS011;6540;50.858;7.232;2022-12-07T03:20:56;22.90;;;15.67;;
12950;SDS011;6540;50.858;7.232;2022-12-07T03:23:25;25.07;;;17.07;;
12950;SDS011;6540;50.858;7.232;2022-12-07T03:25:54;27.77;;;15.40;;
12950;SDS011;6540;50.858;7.232;2022-12-07T03:28:24;21.43;;;16.37;;
12950;SDS011;6540;50.858;7.232;2022-12-07T03:33:24;23.77;;;15.70;;
12950;SDS011;6540;50.858;7.232;2022-12-07T03:36:08;22.10;;;15.67;;
12950;SDS011;6540;50.858;7.232;2022-12-07T03:38:53;27.63;;;16.43;;
12950;SDS011;6540;50.858;7.232;2022-12-07T03:41:28;20.87;;;13.70;;
12950;SDS011;6540;50.858;7.232;2022-12-07T03:43:56;30.20;;;16.13;;
12950;SDS011;6540;50.858;7.232;2022-12-07T03:49:04;25.60;;;16.00;;
12950;SDS011;6540;50.858;7.232;2022-12-07T03:54:24;24.53;;;15.93;;
12950;SDS011;6540;50.858;7.232;2022-12-07T03:56:55;28.03;;;17.00;;
12950;SDS011;6540;50.858;7.232;2022-12-07T03:59:23;21.53;;;14.30;;
12950;SDS011;6540;50.858;7.232;2022-12-07T04:01:57;24.00;;;15.80;;
12950;SDS011;6540;50.858;7.232;2022-12-07T04:04:27;22.53;;;16.97;;
12950;SDS011;6540;50.858;7.232;2022-12-07T04:06:53;23.17;;;16.70;;
12950;SDS011;6540;50.858;7.232;2022-12-07T04:09:18;25.50;;;16.30;;
12950;SDS011;6540;50.858;7.232;2022-12-07T04:11:44;21.27;;;15.60;;
12950;SDS011;6540;50.858;7.232;2022-12-07T04:14:09;24.63;;;16.63;;
12950;SDS011;6540;50.858;7.232;2022-12-07T04:16:44;24.93;;;16.73;;
12950;SDS011;6540;50.858;7.232;2022-12-07T04:19:14;25.60;;;15.83;;
12950;SDS011;6540;50.858;7.232;2022-12-07T04:21:40;22.40;;;15.53;;
12950;SDS011;6540;50.858;7.232;2022-12-07T04:24:05;25.30;;;16.57;;
12950;SDS011;6540;50.858;7.232;2022-12-07T04:26:31;24.43;;;15.37;;
12950;SDS011;6540;50.858;7.232;2022-12-07T04:28:56;25.50;;;15.63;;
12950;SDS011;6540;50.858;7.232;2022-12-07T04:31:22;25.67;;;14.67;;
12950;SDS011;6540;50.858;7.232;2022-12-07T04:33:47;24.47;;;16.00;;
12950;SDS011;6540;50.858;7.232;2022-12-07T04:36:12;22.43;;;15.07;;
12950;SDS011;6540;50.858;7.232;2022-12-07T04:38:38;26.23;;;17.10;;
12950;SDS011;6540;50.858;7.232;2022-12-07T04:41:07;23.77;;;16.13;;
12950;SDS011;6540;50.858;7.232;2022-12-07T04:43:33;23.23;;;16.00;;
12950;SDS011;6540;50.858;7.232;2022-12-07T04:45:59;22.97;;;15.53;;
12950;SDS011;6540;50.858;7.232;2022-12-07T04:48:24;19.53;;;13.70;;
12950;SDS011;6540;50.858;7.232;2022-12-07T04:50:50;25.30;;;14.53;;
12950;SDS011;6540;50.858;7.232;2022-12-07T04:53:15;22.40;;;14.97;;
12950;SDS011;6540;50.858;7.232;2022-12-07T04:55:41;25.13;;;14.93;;
12950;SDS011;6540;50.858;7.232;2022-12-07T04:58:06;24.90;;;15.50;;
12950;SDS011;6540;50.858;7.232;2022-12-07T05:00:31;22.93;;;14.23;;
12950;SDS011;6540;50.858;7.232;2022-12-07T05:02:57;23.10;;;15.97;;
12950;SDS011;6540;50.858;7.232;2022-12-07T05:05:22;25.23;;;15.87;;
12950;SDS011;6540;50.858;7.232;2022-12-07T05:07:47;23.80;;;14.73;;
12950;SDS011;6540;50.858;7.232;2022-12-07T05:10:13;23.67;;;13.27;;
12950;SDS011;6540;50.858;7.232;2022-12-07T05:12:38;24.13;;;14.20;;
12950;SDS011;6540;50.858;7.232;2022-12-07T05:15:04;27.03;;;15.03;;
12950;SDS011;6540;50.858;7.232;2022-12-07T05:17:29;19.83;;;13.40;;
12950;SDS011;6540;50.858;7.232;2022-12-07T05:19:55;20.70;;;14.43;;
12950;SDS011;6540;50.858;7.232;2022-12-07T05:22:20;23.53;;;14.70;;
12950;SDS011;6540;50.858;7.232;2022-12-07T05:24:46;25.70;;;14.37;;
12950;SDS011;6540;50.858;7.232;2022-12-07T05:27:11;26.97;;;16.63;;
12950;SDS011;6540;50.858;7.232;2022-12-07T05:29:37;26.17;;;14.17;;
12950;SDS011;6540;50.858;7.232;2022-12-07T05:32:02;24.30;;;15.67;;
12950;SDS011;6540;50.858;7.232;2022-12-07T05:34:27;28.63;;;15.53;;
12950;SDS011;6540;50.858;7.232;2022-12-07T05:36:53;24.87;;;14.83;;
12950;SDS011;6540;50.858;7.232;2022-12-07T05:39:18;21.77;;;13.93;;
12950;SDS011;6540;50.858;7.232;2022-12-07T05:41:43;23.53;;;14.10;;
12950;SDS011;6540;50.858;7.232;2022-12-07T05:44:27;25.17;;;15.80;;
12950;SDS011;6540;50.858;7.232;2022-12-07T05:46:53;23.23;;;14.63;;
12950;SDS011;6540;50.858;7.232;2022-12-07T05:49:19;23.60;;;15.57;;
12950;SDS011;6540;50.858;7.232;2022-12-07T05:51:44;26.40;;;15.90;;
12950;SDS011;6540;50.858;7.232;2022-12-07T05:54:09;22.67;;;14.93;;
12950;SDS011;6540;50.858;7.232;2022-12-07T05:56:35;24.73;;;15.47;;
12950;SDS011;6540;50.858;7.232;2022-12-07T05:59:00;24.93;;;14.67;;
12950;SDS011;6540;50.858;7.232;2022-12-07T06:01:44;21.83;;;14.97;;
12950;SDS011;6540;50.858;7.232;2022-12-07T06:04:10;26.33;;;15.67;;
12950;SDS011;6540;50.858;7.232;2022-12-07T06:06:35;23.87;;;15.33;;
12950;SDS011;6540;50.858;7.232;2022-12-07T06:09:01;23.27;;;15.53;;
12950;SDS011;6540;50.858;7.232;2022-12-07T06:11:27;25.07;;;15.03;;
12950;SDS011;6540;50.858;7.232;2022-12-07T06:14:11;25.53;;;15.40;;
12950;SDS011;6540;50.858;7.232;2022-12-07T06:16:36;24.20;;;16.33;;
12950;SDS011;6540;50.858;7.232;2022-12-07T06:19:02;23.77;;;14.53;;
12950;SDS011;6540;50.858;7.232;2022-12-07T06:21:27;23.27;;;15.40;;
12950;SDS011;6540;50.858;7.232;2022-12-07T06:23:53;29.00;;;15.33;;
12950;SDS011;6540;50.858;7.232;2022-12-07T06:26:18;25.03;;;15.73;;
12950;SDS011;6540;50.858;7.232;2022-12-07T06:28:44;23.80;;;16.43;;
12950;SDS011;6540;50.858;7.232;2022-12-07T06:31:09;26.50;;;15.70;;
12950;SDS011;6540;50.858;7.232;2022-12-07T06:33:35;24.37;;;15.80;;
12950;SDS011;6540;50.858;7.232;2022-12-07T06:36:00;20.67;;;14.60;;
12950;SDS011;6540;50.858;7.232;2022-12-07T06:38:25;29.13;;;16.10;;
12950;SDS011;6540;50.858;7.232;2022-12-07T06:40:51;26.10;;;16.33;;
12950;SDS011;6540;50.858;7.232;2022-12-07T06:43:16;28.43;;;16.20;;
12950;SDS011;6540;50.858;7.232;2022-12-07T06:45:41;20.47;;;12.60;;
12950;SDS011;6540;50.858;7.232;2022-12-07T06:48:07;24.80;;;14.53;;
12950;SDS011;6540;50.858;7.232;2022-12-07T06:50:32;21.93;;;15.47;;
12950;SDS011;6540;50.858;7.232;2022-12-07T06:52:57;22.37;;;14.77;;
12950;SDS011;6540;50.858;7.232;2022-12-07T06:55:23;28.90;;;14.80;;
12950;SDS011;6540;50.858;7.232;2022-12-07T06:57:48;23.00;;;14.70;;
12950;SDS011;6540;50.858;7.232;2022-12-07T07:00:13;22.20;;;14.87;;
12950;SDS011;6540;50.858;7.232;2022-12-07T07:02:39;22.87;;;13.90;;
12950;SDS011;6540;50.858;7.232;2022-12-07T07:05:05;18.23;;;12.43;;
12950;SDS011;6540;50.858;7.232;2022-12-07T07:07:30;22.53;;;14.27;;
12950;SDS011;6540;50.858;7.232;2022-12-07T07:09:55;20.10;;;13.70;;
12950;SDS011;6540;50.858;7.232;2022-12-07T07:12:21;20.77;;;13.20;;
12950;SDS011;6540;50.858;7.232;2022-12-07T07:14:46;20.77;;;13.27;;
12950;SDS011;6540;50.858;7.232;2022-12-07T07:17:12;21.50;;;13.73;;
12950;SDS011;6540;50.858;7.232;2022-12-07T07:19:37;22.33;;;12.10;;
12950;SDS011;6540;50.858;7.232;2022-12-07T07:22:03;17.33;;;12.70;;
12950;SDS011;6540;50.858;7.232;2022-12-07T07:24:29;16.20;;;11.97;;
12950;SDS011;6540;50.858;7.232;2022-12-07T07:26:54;21.20;;;13.30;;
12950;SDS011;6540;50.858;7.232;2022-12-07T07:29:19;20.80;;;13.77;;
12950;SDS011;6540;50.858;7.232;2022-12-07T07:31:45;24.73;;;15.07;;
12950;SDS011;6540;50.858;7.232;2022-12-07T07:34:10;21.27;;;13.23;;
12950;SDS011;6540;50.858;7.232;2022-12-07T07:36:36;21.37;;;12.23;;
12950;SDS011;6540;50.858;7.232;2022-12-07T07:39:01;18.33;;;11.93;;
12950;SDS011;6540;50.858;7.232;2022-12-07T07:41:27;21.70;;;13.03;;
12950;SDS011;6540;50.858;7.232;2022-12-07T07:43:52;22.63;;;14.07;;
12950;SDS011;6540;50.858;7.232;2022-12-07T07:46:18;23.07;;;15.33;;
12950;SDS011;6540;50.858;7.232;2022-12-07T07:48:43;22.37;;;13.37;;
12950;SDS011;6540;50.858;7.232;2022-12-07T07:51:08;20.90;;;14.03;;
12950;SDS011;6540;50.858;7.232;2022-12-07T07:53:34;24.83;;;15.33;;
12950;SDS011;6540;50.858;7.232;2022-12-07T07:55:59;19.23;;;13.50;;
12950;SDS011;6540;50.858;7.232;2022-12-07T07:58:25;21.20;;;12.87;;
12950;SDS011;6540;50.858;7.232;2022-12-07T08:00:50;23.80;;;15.33;;
12950;SDS011;6540;50.858;7.232;2022-12-07T08:03:16;24.10;;;15.07;;
12950;SDS011;6540;50.858;7.232;2022-12-07T08:05:41;25.10;;;16.77;;
12950;SDS011;6540;50.858;7.232;2022-12-07T08:08:07;28.70;;;17.13;;
12950;SDS011;6540;50.858;7.232;2022-12-07T08:10:32;22.77;;;14.70;;
12950;SDS011;6540;50.858;7.232;2022-12-07T08:12:59;24.60;;;15.70;;
12950;SDS011;6540;50.858;7.232;2022-12-07T08:15:38;23.40;;;16.07;;
12950;SDS011;6540;50.858;7.232;2022-12-07T08:18:05;24.13;;;14.83;;
12950;SDS011;6540;50.858;7.232;2022-12-07T08:20:31;25.20;;;17.00;;
12950;SDS011;6540;50.858;7.232;2022-12-07T08:22:57;27.30;;;15.60;;
12950;SDS011;6540;50.858;7.232;2022-12-07T08:25:23;26.87;;;15.30;;
12950;SDS011;6540;50.858;7.232;2022-12-07T08:27:49;24.80;;;14.97;;
12950;SDS011;6540;50.858;7.232;2022-12-07T08:30:15;25.40;;;15.70;;
12950;SDS011;6540;50.858;7.232;2022-12-07T08:32:41;27.47;;;17.40;;
12950;SDS011;6540;50.858;7.232;2022-12-07T08:35:06;23.87;;;15.97;;
12950;SDS011;6540;50.858;7.232;2022-12-07T08:37:32;22.97;;;14.87;;
12950;SDS011;6540;50.858;7.232;2022-12-07T08:39:58;22.00;;;15.83;;
12950;SDS011;6540;50.858;7.232;2022-12-07T08:42:23;25.33;;;16.67;;
12950;SDS011;6540;50.858;7.232;2022-12-07T08:44:52;20.90;;;13.70;;
12950;SDS011;6540;50.858;7.232;2022-12-07T08:47:18;30.23;;;16.23;;
12950;SDS011;6540;50.858;7.232;2022-12-07T08:49:44;24.70;;;15.47;;
12950;SDS011;6540;50.858;7.232;2022-12-07T08:52:12;21.40;;;15.27;;
12950;SDS011;6540;50.858;7.232;2022-12-07T08:54:38;25.57;;;14.37;;
12950;SDS011;6540;50.858;7.232;2022-12-07T08:57:06;31.50;;;15.17;;
12950;SDS011;6540;50.858;7.232;2022-12-07T08:59:33;20.77;;;14.63;;
12950;SDS011;6540;50.858;7.232;2022-12-07T09:01:59;21.30;;;14.50;;
12950;SDS011;6540;50.858;7.232;2022-12-07T09:04:25;23.13;;;15.73;;
12950;SDS011;6540;50.858;7.232;2022-12-07T09:06:51;22.27;;;15.03;;
12950;SDS011;6540;50.858;7.232;2022-12-07T09:09:16;23.73;;;16.17;;
12950;SDS011;6540;50.858;7.232;2022-12-07T09:11:42;23.00;;;15.60;;
12950;SDS011;6540;50.858;7.232;2022-12-07T09:14:09;20.87;;;13.97;;
12950;SDS011;6540;50.858;7.232;2022-12-07T09:16:34;21.73;;;13.77;;
12950;SDS011;6540;50.858;7.232;2022-12-07T09:19:00;25.10;;;14.83;;
12950;SDS011;6540;50.858;7.232;2022-12-07T09:21:25;25.27;;;14.07;;
12950;SDS011;6540;50.858;7.232;2022-12-07T09:23:50;23.27;;;15.17;;
12950;SDS011;6540;50.858;7.232;2022-12-07T09:26:16;26.30;;;14.77;;
12950;SDS011;6540;50.858;7.232;2022-12-07T09:28:41;21.77;;;14.97;;
12950;SDS011;6540;50.858;7.232;2022-12-07T09:31:06;25.10;;;15.87;;
12950;SDS011;6540;50.858;7.232;2022-12-07T09:33:32;21.87;;;14.27;;
12950;SDS011;6540;50.858;7.232;2022-12-07T09:35:57;23.07;;;13.67;;
12950;SDS011;6540;50.858;7.232;2022-12-07T09:38:23;21.47;;;14.63;;
12950;SDS011;6540;50.858;7.232;2022-12-07T09:40:51;19.83;;;12.83;;
12950;SDS011;6540;50.858;7.232;2022-12-07T09:43:18;24.00;;;14.87;;
12950;SDS011;6540;50.858;7.232;2022-12-07T09:45:47;22.43;;;14.10;;
12950;SDS011;6540;50.858;7.232;2022-12-07T09:48:18;23.10;;;14.87;;
12950;SDS011;6540;50.858;7.232;2022-12-07T09:50:47;22.93;;;13.53;;
12950;SDS011;6540;50.858;7.232;2022-12-07T09:53:36;23.07;;;13.83;;
12950;SDS011;6540;50.858;7.232;2022-12-07T09:56:00;20.40;;;13.67;;
12950;SDS011;6540;50.858;7.232;2022-12-07T09:58:27;22.60;;;14.07;;
12950;SDS011;6540;50.858;7.232;2022-12-07T10:00:55;22.77;;;13.53;;
12950;SDS011;6540;50.858;7.232;2022-12-07T10:03:25;23.83;;;15.67;;
12950;SDS011;6540;50.858;7.232;2022-12-07T10:05:51;20.37;;;14.50;;
12950;SDS011;6540;50.858;7.232;2022-12-07T10:08:18;20.53;;;13.43;;
12950;SDS011;6540;50.858;7.232;2022-12-07T10:10:44;18.07;;;13.73;;
12950;SDS011;6540;50.858;7.232;2022-12-07T10:13:15;24.63;;;13.70;;
12950;SDS011;6540;50.858;7.232;2022-12-07T10:15:49;19.97;;;12.83;;
12950;SDS011;6540;50.858;7.232;2022-12-07T10:18:38;19.90;;;13.10;;
12950;SDS011;6540;50.858;7.232;2022-12-07T10:21:16;23.77;;;14.23;;
12950;SDS011;6540;50.858;7.232;2022-12-07T10:24:27;19.43;;;13.20;;
12950;SDS011;6540;50.858;7.232;2022-12-07T10:28:54;18.97;;;11.80;;
12950;SDS011;6540;50.858;7.232;2022-12-07T10:31:21;21.37;;;12.70;;
12950;SDS011;6540;50.858;7.232;2022-12-07T10:33:54;19.40;;;11.80;;
12950;SDS011;6540;50.858;7.232;2022-12-07T10:36:35;24.83;;;13.37;;
12950;SDS011;6540;50.858;7.232;2022-12-07T10:39:13;19.37;;;10.97;;
12950;SDS011;6540;50.858;7.232;2022-12-07T10:42:00;16.87;;;10.57;;
12950;SDS011;6540;50.858;7.232;2022-12-07T10:44:30;17.87;;;10.63;;
12950;SDS011;6540;50.858;7.232;2022-12-07T11:05:18;11.60;;;8.50;;
12950;SDS011;6540;50.858;7.232;2022-12-07T11:24:17;14.90;;;8.43;;
12950;SDS011;6540;50.858;7.232;2022-12-07T11:32:15;12.97;;;7.33;;
12950;SDS011;6540;50.858;7.232;2022-12-07T11:37:38;15.10;;;7.13;;
12950;SDS011;6540;50.858;7.232;2022-12-07T11:42:52;10.33;;;6.60;;
12950;SDS011;6540;50.858;7.232;2022-12-07T11:45:29;11.03;;;7.10;;
12950;SDS011;6540;50.858;7.232;2022-12-07T11:50:45;12.27;;;8.10;;
12950;SDS011;6540;50.858;7.232;2022-12-07T11:53:26;10.87;;;7.77;;
12950;SDS011;6540;50.858;7.232;2022-12-07T11:58:43;9.13;;;5.63;;
12950;SDS011;6540;50.858;7.232;2022-12-07T12:03:43;12.63;;;6.63;;
12950;SDS011;6540;50.858;7.232;2022-12-07T12:06:11;15.67;;;7.67;;
12950;SDS011;6540;50.858;7.232;2022-12-07T12:08:55;13.90;;;6.70;;
12950;SDS011;6540;50.858;7.232;2022-12-07T12:11:48;11.03;;;5.97;;
12950;SDS011;6540;50.858;7.232;2022-12-07T12:17:09;7.57;;;5.50;;
12950;SDS011;6540;50.858;7.232;2022-12-07T12:22:46;8.43;;;4.87;;
12950;SDS011;6540;50.858;7.232;2022-12-07T12:25:21;8.43;;;5.60;;
12950;SDS011;6540;50.858;7.232;2022-12-07T12:27:51;6.27;;;4.70;;
12950;SDS011;6540;50.858;7.232;2022-12-07T12:33:20;8.73;;;3.97;;
12950;SDS011;6540;50.858;7.232;2022-12-07T12:44:03;7.90;;;4.77;;
12950;SDS011;6540;50.858;7.232;2022-12-07T12:51:45;6.77;;;3.70;;
12950;SDS011;6540;50.858;7.232;2022-12-07T13:02:20;10.60;;;4.50;;
12950;SDS011;6540;50.858;7.232;2022-12-07T13:04:53;7.00;;;4.47;;
12950;SDS011;6540;50.858;7.232;2022-12-07T13:20:40;7.80;;;4.40;;
12950;SDS011;6540;50.858;7.232;2022-12-07T13:23:13;8.63;;;4.40;;
12950;SDS011;6540;50.858;7.232;2022-12-07T13:29:05;9.60;;;5.20;;
12950;SDS011;6540;50.858;7.232;2022-12-07T13:31:43;6.23;;;5.03;;
12950;SDS011;6540;50.858;7.232;2022-12-07T13:39:56;9.00;;;5.53;;
12950;SDS011;6540;50.858;7.232;2022-12-07T13:42:27;7.60;;;5.00;;
12950;SDS011;6540;50.858;7.232;2022-12-07T13:44:55;7.07;;;5.17;;
12950;SDS011;6540;50.858;7.232;2022-12-07T13:50:24;8.00;;;5.03;;
12950;SDS011;6540;50.858;7.232;2022-12-07T13:52:57;10.03;;;5.87;;
12950;SDS011;6540;50.858;7.232;2022-12-07T13:55:24;12.37;;;7.00;;
12950;SDS011;6540;50.858;7.232;2022-12-07T13:57:50;9.10;;;5.50;;
12950;SDS011;6540;50.858;7.232;2022-12-07T14:00:18;8.53;;;5.67;;
12950;SDS011;6540;50.858;7.232;2022-12-07T14:02:54;7.17;;;5.70;;
12950;SDS011;6540;50.858;7.232;2022-12-07T14:05:26;11.57;;;5.53;;
12950;SDS011;6540;50.858;7.232;2022-12-07T14:12:58;8.57;;;5.73;;
12950;SDS011;6540;50.858;7.232;2022-12-07T14:17:58;8.87;;;5.17;;
12950;SDS011;6540;50.858;7.232;2022-12-07T14:20:35;6.70;;;5.47;;
12950;SDS011;6540;50.858;7.232;2022-12-07T14:23:02;10.70;;;5.97;;
12950;SDS011;6540;50.858;7.232;2022-12-07T14:25:44;9.47;;;6.27;;
12950;SDS011;6540;50.858;7.232;2022-12-07T14:28:25;7.67;;;5.53;;
12950;SDS011;6540;50.858;7.232;2022-12-07T14:30:56;13.63;;;6.93;;
12950;SDS011;6540;50.858;7.232;2022-12-07T14:33:22;13.60;;;6.83;;
12950;SDS011;6540;50.858;7.232;2022-12-07T14:35:49;9.93;;;6.97;;
12950;SDS011;6540;50.858;7.232;2022-12-07T14:38:14;8.93;;;6.37;;
12950;SDS011;6540;50.858;7.232;2022-12-07T14:40:39;11.13;;;5.87;;
12950;SDS011;6540;50.858;7.232;2022-12-07T14:43:08;12.70;;;5.67;;
12950;SDS011;6540;50.858;7.232;2022-12-07T14:45:35;8.90;;;5.93;;
12950;SDS011;6540;50.858;7.232;2022-12-07T14:48:01;12.10;;;6.53;;
12950;SDS011;6540;50.858;7.232;2022-12-07T14:50:26;14.83;;;8.47;;
12950;SDS011;6540;50.858;7.232;2022-12-07T14:52:56;10.17;;;6.57;;
12950;SDS011;6540;50.858;7.232;2022-12-07T14:55:25;8.30;;;6.07;;
12950;SDS011;6540;50.858;7.232;2022-12-07T14:57:53;13.83;;;6.37;;
12950;SDS011;6540;50.858;7.232;2022-12-07T15:00:19;12.90;;;7.13;;
12950;SDS011;6540;50.858;7.232;2022-12-07T15:02:46;11.17;;;7.00;;
12950;SDS011;6540;50.858;7.232;2022-12-07T15:05:13;7.77;;;5.47;;
12950;SDS011;6540;50.858;7.232;2022-12-07T15:07:39;8.60;;;5.67;;
12950;SDS011;6540;50.858;7.232;2022-12-07T15:10:05;11.83;;;6.13;;
12950;SDS011;6540;50.858;7.232;2022-12-07T15:12:31;10.27;;;6.50;;
12950;SDS011;6540;50.858;7.232;2022-12-07T15:14:57;6.93;;;5.27;;
12950;SDS011;6540;50.858;7.232;2022-12-07T15:17:22;14.73;;;6.50;;
12950;SDS011;6540;50.858;7.232;2022-12-07T15:19:47;8.47;;;6.20;;
12950;SDS011;6540;50.858;7.232;2022-12-07T15:22:13;8.53;;;6.30;;
12950;SDS011;6540;50.858;7.232;2022-12-07T15:24:38;9.00;;;6.70;;
12950;SDS011;6540;50.858;7.232;2022-12-07T15:27:04;8.10;;;5.57;;
12950;SDS011;6540;50.858;7.232;2022-12-07T15:29:29;8.43;;;6.20;;
12950;SDS011;6540;50.858;7.232;2022-12-07T15:31:54;9.27;;;5.73;;
12950;SDS011;6540;50.858;7.232;2022-12-07T15:34:20;9.57;;;6.60;;
12950;SDS011;6540;50.858;7.232;2022-12-07T15:36:46;9.30;;;5.80;;
12950;SDS011;6540;50.858;7.232;2022-12-07T15:39:11;9.10;;;5.43;;
12950;SDS011;6540;50.858;7.232;2022-12-07T15:41:37;9.37;;;5.20;;
12950;SDS011;6540;50.858;7.232;2022-12-07T15:44:02;6.80;;;5.57;;
12950;SDS011;6540;50.858;7.232;2022-12-07T15:46:46;8.27;;;6.07;;
12950;SDS011;6540;50.858;7.232;2022-12-07T15:49:13;10.80;;;5.93;;
12950;SDS011;6540;50.858;7.232;2022-12-07T15:51:43;11.03;;;5.23;;
12950;SDS011;6540;50.858;7.232;2022-12-07T15:54:27;8.30;;;7.00;;
12950;SDS011;6540;50.858;7.232;2022-12-07T15:56:54;11.07;;;6.93;;
12950;SDS011;6540;50.858;7.232;2022-12-07T15:59:21;10.97;;;7.63;;
12950;SDS011;6540;50.858;7.232;2022-12-07T16:01:46;9.80;;;6.30;;
12950;SDS011;6540;50.858;7.232;2022-12-07T16:04:12;7.53;;;5.87;;
12950;SDS011;6540;50.858;7.232;2022-12-07T16:06:38;9.23;;;6.73;;
12950;SDS011;6540;50.858;7.232;2022-12-07T16:09:04;5.67;;;3.87;;
12950;SDS011;6540;50.858;7.232;2022-12-07T16:11:29;6.93;;;4.50;;
12950;SDS011;6540;50.858;7.232;2022-12-07T16:13:55;8.23;;;4.20;;
12950;SDS011;6540;50.858;7.232;2022-12-07T16:16:20;5.30;;;4.37;;
12950;SDS011;6540;50.858;7.232;2022-12-07T16:18:47;7.63;;;3.87;;
12950;SDS011;6540;50.858;7.232;2022-12-07T16:21:14;5.30;;;3.77;;
12950;SDS011;6540;50.858;7.232;2022-12-07T16:23:40;6.33;;;4.50;;
12950;SDS011;6540;50.858;7.232;2022-12-07T16:28:43;14.37;;;6.03;;
12950;SDS011;6540;50.858;7.232;2022-12-07T16:31:10;7.50;;;5.03;;
12950;SDS011;6540;50.858;7.232;2022-12-07T16:33:38;7.10;;;4.80;;
12950;SDS011;6540;50.858;7.232;2022-12-07T16:36:05;4.43;;;4.03;;
12950;SDS011;6540;50.858;7.232;2022-12-07T16:38:32;5.33;;;4.50;;
12950;SDS011;6540;50.858;7.232;2022-12-07T16:40:58;5.43;;;4.87;;
12950;SDS011;6540;50.858;7.232;2022-12-07T16:43:23;8.90;;;4.83;;
12950;SDS011;6540;50.858;7.232;2022-12-07T16:45:49;5.50;;;4.53;;
12950;SDS011;6540;50.858;7.232;2022-12-07T16:48:15;5.20;;;4.73;;
12950;SDS011;6540;50.858;7.232;2022-12-07T16:50:41;7.63;;;5.93;;
12950;SDS011;6540;50.858;7.232;2022-12-07T16:53:10;9.70;;;5.40;;
12950;SDS011;6540;50.858;7.232;2022-12-07T16:55:37;8.23;;;5.93;;
12950;SDS011;6540;50.858;7.232;2022-12-07T16:58:04;6.97;;;5.67;;
12950;SDS011;6540;50.858;7.232;2022-12-07T17:00:30;8.03;;;5.77;;
12950;SDS011;6540;50.858;7.232;2022-12-07T17:02:55;7.93;;;6.27;;
12950;SDS011;6540;50.858;7.232;2022-12-07T17:05:20;7.77;;;5.67;;
12950;SDS011;6540;50.858;7.232;2022-12-07T17:07:46;9.50;;;6.20;;
12950;SDS011;6540;50.858;7.232;2022-12-07T17:10:11;10.37;;;7.67;;
12950;SDS011;6540;50.858;7.232;2022-12-07T17:12:36;10.57;;;7.10;;
12950;SDS011;6540;50.858;7.232;2022-12-07T17:15:02;11.90;;;8.13;;
12950;SDS011;6540;50.858;7.232;2022-12-07T17:17:47;13.77;;;9.13;;
12950;SDS011;6540;50.858;7.232;2022-12-07T17:20:17;18.13;;;9.17;;
12950;SDS011;6540;50.858;7.232;2022-12-07T17:22:43;14.33;;;9.63;;
12950;SDS011;6540;50.858;7.232;2022-12-07T17:25:10;12.03;;;7.53;;
12950;SDS011;6540;50.858;7.232;2022-12-07T17:27:36;10.13;;;6.80;;
12950;SDS011;6540;50.858;7.232;2022-12-07T17:30:05;9.73;;;6.03;;